createdAt,value
2023-01-27T00:01:24.405Z,49.42
2023-01-27T00:06:21.201Z,55.85
2023-01-27T00:11:36.775Z,63.22
2023-01-27T00:16:33.592Z,54.97
2023-01-27T00:21:48.372Z,56.70
2023-01-27T00:26:45.959Z,58.28
2023-01-27T00:32:01.059Z,57.45
2023-01-27T00:36:57.869Z,58.47
2023-01-27T00:41:55.818Z,56.78
2023-01-27T00:46:52.636Z,61.58
2023-01-27T00:51:49.729Z,67.53
2023-01-27T00:56:46.641Z,64.15
2023-01-27T01:01:44.210Z,59.70
2023-01-27T01:06:42.513Z,66.18
2023-01-27T01:11:39.829Z,58.80
2023-01-27T01:16:36.596Z,55.83
2023-01-27T01:21:34.163Z,57.58
2023-01-27T01:26:30.944Z,57.80
2023-01-27T01:31:27.891Z,51.13
2023-01-27T01:36:25.418Z,56.90
2023-01-27T01:41:23.408Z,55.70
2023-01-27T01:46:20.540Z,55.53
2023-01-27T01:51:22.850Z,46.88
2023-01-27T01:56:24.015Z,49.45
2023-01-27T02:01:23.184Z,50.10
2023-01-27T02:06:21.259Z,51.03
2023-01-27T02:11:20.064Z,45.35
2023-01-27T02:16:17.644Z,43.85
2023-01-27T02:21:14.581Z,46.47
2023-01-27T02:26:17.576Z,46.38
2023-01-27T02:31:14.595Z,49.42
2023-01-27T02:36:14.518Z,39.65
2023-01-27T02:41:20.705Z,43.40
2023-01-27T02:51:15.309Z,45.60
2023-01-27T02:56:14.879Z,40.88
2023-01-27T03:01:12.971Z,38.95
2023-01-27T03:06:09.890Z,38.08
2023-01-27T03:11:07.598Z,39.00
2023-01-27T03:16:25.081Z,34.13
2023-01-27T03:21:22.191Z,38.65
2023-01-27T03:26:19.516Z,44.67
2023-01-27T03:31:21.046Z,40.65
2023-01-27T03:36:44.306Z,41.08
2023-01-27T03:41:59.875Z,37.47
2023-01-27T03:46:57.780Z,39.47
2023-01-27T03:51:54.572Z,40.50
2023-01-27T03:56:51.303Z,41.47
2023-01-27T04:01:48.535Z,38.47
2023-01-27T04:06:55.772Z,45.05
2023-01-27T04:11:58.315Z,39.28
2023-01-27T04:16:56.926Z,45.25
2023-01-27T04:21:55.717Z,41.00
2023-01-27T04:26:57.239Z,48.88
2023-01-27T04:31:55.225Z,47.17
2023-01-27T04:36:52.440Z,45.25
2023-01-27T04:41:50.998Z,43.08
2023-01-27T04:46:48.605Z,44.88
2023-01-27T04:51:48.640Z,41.80
2023-01-27T04:56:57.075Z,40.92
2023-01-27T05:01:54.026Z,37.45
2023-01-27T05:06:51.063Z,39.97
2023-01-27T05:11:47.925Z,46.90
2023-01-27T05:16:45.801Z,36.42
2023-01-27T05:21:42.883Z,43.30
2023-01-27T05:26:40.078Z,37.13
2023-01-27T05:31:37.335Z,41.22
2023-01-27T05:36:37.238Z,39.47
2023-01-27T05:41:34.344Z,47.20
2023-01-27T05:46:32.872Z,48.33
2023-01-27T05:51:31.915Z,52.50
2023-01-27T05:56:29.576Z,52.65
2023-01-27T06:01:30.006Z,47.58
2023-01-27T06:06:28.851Z,55.33
2023-01-27T06:11:26.107Z,48.75
2023-01-27T06:16:24.145Z,54.50
2023-01-27T06:21:21.418Z,46.08
2023-01-27T06:26:19.449Z,50.08
2023-01-27T06:31:18.154Z,51.47
2023-01-27T06:36:18.250Z,48.35
2023-01-27T06:41:15.194Z,46.03
2023-01-27T06:46:22.466Z,45.78
2023-01-27T06:51:21.548Z,47.55
2023-01-27T06:56:18.543Z,47.33
2023-01-27T07:01:15.570Z,39.72
2023-01-27T07:06:14.683Z,45.05
2023-01-27T07:11:12.778Z,40.75
2023-01-27T07:16:09.687Z,41.00
2023-01-27T07:21:07.016Z,43.30
2023-01-27T07:26:09.968Z,38.55
2023-01-27T07:31:14.162Z,35.92
2023-01-27T07:36:11.273Z,37.45
2023-01-27T07:41:08.131Z,35.03
2023-01-27T07:46:07.913Z,42.75
2023-01-27T07:51:05.557Z,34.47
2023-01-27T07:56:02.470Z,37.63
2023-01-27T08:00:59.518Z,41.75
2023-01-27T08:05:56.646Z,46.05
2023-01-27T08:16:22.741Z,36.33
2023-01-27T08:21:19.926Z,34.90
2023-01-27T08:26:17.822Z,32.70
2023-01-27T08:31:16.371Z,40.33
2023-01-27T08:36:18.128Z,38.80
2023-01-27T08:41:18.041Z,41.72
2023-01-27T08:46:15.753Z,40.17
2023-01-27T08:51:14.447Z,39.45
2023-01-27T08:56:13.424Z,38.95
2023-01-27T09:01:11.038Z,34.20
2023-01-27T09:06:09.373Z,40.97
2023-01-27T09:11:10.701Z,29.55
2023-01-27T09:16:08.181Z,29.58
2023-01-27T09:21:06.604Z,32.33
2023-01-27T09:26:03.496Z,25.25
2023-01-27T09:31:00.568Z,27.60
2023-01-27T09:36:06.724Z,24.15
2023-01-27T09:41:23.446Z,27.45
2023-01-27T09:46:46.740Z,27.73
2023-01-27T09:51:53.761Z,27.50
2023-01-27T09:57:04.181Z,27.63
2023-01-27T10:02:16.920Z,21.83
2023-01-27T10:07:38.287Z,25.98
2023-01-27T10:12:49.842Z,25.77
2023-01-27T10:17:57.012Z,24.65
2023-01-27T10:23:08.952Z,26.88
2023-01-27T10:28:12.317Z,25.05
2023-01-27T10:33:16.972Z,26.67
2023-01-27T10:38:23.548Z,34.20
2023-01-27T10:43:31.970Z,33.00
2023-01-27T10:48:36.323Z,27.42
2023-01-27T10:53:41.920Z,22.27
2023-01-27T10:58:53.896Z,21.90
2023-01-27T11:03:57.029Z,18.83
2023-01-27T11:09:05.271Z,21.10
2023-01-27T11:14:14.759Z,22.63
2023-01-27T11:19:22.783Z,22.67
2023-01-27T11:24:24.873Z,21.90
2023-01-27T11:29:32.379Z,27.48
2023-01-27T11:34:34.172Z,27.20
2023-01-27T11:39:33.594Z,24.20
2023-01-27T11:44:34.527Z,24.50
2023-01-27T11:49:37.123Z,27.33
2023-01-27T11:54:41.504Z,23.63
2023-01-27T11:59:41.813Z,23.37
2023-01-27T12:04:51.073Z,29.00
2023-01-27T12:09:48.312Z,25.40
2023-01-27T12:14:49.411Z,27.50
2023-01-27T12:19:47.368Z,28.45
2023-01-27T12:24:49.412Z,26.00
2023-01-27T12:29:51.211Z,28.23
2023-01-27T12:34:55.766Z,25.92
2023-01-27T12:40:04.659Z,20.95
2023-01-27T12:45:22.070Z,18.63
2023-01-27T12:50:22.500Z,23.52
2023-01-27T12:55:34.530Z,20.00
2023-01-27T13:00:34.173Z,21.95
2023-01-27T13:05:36.454Z,23.23
2023-01-27T13:10:33.858Z,23.05
2023-01-27T13:15:51.769Z,21.45
2023-01-27T13:20:52.499Z,23.10
2023-01-27T13:25:55.432Z,21.80
2023-01-27T13:30:58.437Z,21.50
2023-01-27T13:36:04.445Z,18.38
2023-01-27T13:46:15.595Z,19.17
2023-01-27T13:51:16.668Z,21.60
2023-01-27T13:56:31.239Z,22.20
2023-01-27T14:01:43.486Z,17.55
2023-01-27T14:06:50.635Z,19.98
2023-01-27T14:12:00.637Z,16.88
2023-01-27T14:17:13.314Z,12.73
2023-01-27T14:22:23.937Z,16.77
2023-01-27T14:27:26.558Z,13.95
2023-01-27T14:32:30.336Z,15.15
2023-01-27T14:37:35.250Z,12.80
2023-01-27T14:42:43.435Z,15.03
2023-01-27T14:47:50.694Z,17.65
2023-01-27T14:52:57.698Z,18.80
2023-01-27T14:58:05.959Z,16.45
2023-01-27T15:03:36.156Z,17.35
2023-01-27T15:08:46.829Z,18.08
2023-01-27T15:13:56.571Z,17.02
2023-01-27T15:19:20.016Z,15.55
2023-01-27T15:24:54.605Z,19.92
2023-01-27T15:29:52.065Z,17.55
2023-01-27T15:34:53.375Z,19.60
2023-01-27T15:40:16.260Z,16.88
2023-01-27T15:45:28.913Z,18.20
2023-01-27T15:50:29.785Z,17.42
2023-01-27T15:55:34.578Z,19.00
2023-01-27T16:00:38.346Z,20.83
2023-01-27T16:05:38.234Z,19.02
2023-01-27T16:11:03.716Z,2.17
2023-01-27T16:16:35.589Z,3.93
2023-01-27T16:21:48.873Z,2.28
2023-01-27T16:26:49.593Z,1.27
2023-01-27T16:31:51.674Z,1.95
2023-01-27T16:37:02.159Z,1.95
2023-01-27T16:42:05.240Z,1.10
2023-01-27T16:47:16.888Z,1.63
2023-01-27T16:52:32.446Z,0.90
2023-01-27T16:58:14.016Z,0.90
2023-01-27T17:03:21.329Z,2.70
2023-01-27T17:08:25.884Z,14.05
2023-01-27T17:13:28.559Z,14.88
2023-01-27T17:18:31.657Z,14.77
2023-01-27T17:23:34.903Z,15.48
2023-01-27T17:28:38.319Z,19.88
2023-01-27T17:33:37.853Z,16.85
2023-01-27T17:38:44.035Z,31.58
2023-01-27T17:43:47.832Z,17.17
2023-01-27T17:48:51.689Z,18.17
2023-01-27T17:53:55.261Z,20.10
2023-01-27T17:58:57.549Z,19.20
2023-01-27T18:03:58.195Z,18.05
2023-01-27T18:09:02.087Z,16.80
2023-01-27T18:14:09.666Z,14.38
2023-01-27T18:19:20.953Z,16.50
2023-01-27T18:24:23.162Z,17.65
2023-01-27T18:29:28.633Z,21.63
2023-01-27T18:34:30.381Z,14.45
2023-01-27T18:39:41.025Z,24.77
2023-01-27T18:44:46.309Z,19.30
2023-01-27T18:49:44.839Z,20.08
2023-01-27T18:54:45.759Z,22.85
2023-01-27T18:59:43.233Z,20.25
2023-01-27T19:04:44.408Z,19.27
2023-01-27T19:09:44.845Z,21.45
2023-01-27T19:14:42.425Z,17.75
2023-01-27T19:19:47.606Z,19.38
2023-01-27T19:24:57.071Z,20.45
2023-01-27T19:29:57.270Z,17.63
2023-01-27T19:34:54.942Z,21.52
2023-01-27T19:39:52.925Z,24.35
2023-01-27T19:44:51.180Z,21.13
2023-01-27T19:49:48.445Z,23.15
2023-01-27T19:54:45.478Z,23.27
2023-01-27T19:59:45.338Z,21.00
2023-01-27T20:04:42.394Z,18.88
2023-01-27T20:09:40.529Z,20.05
2023-01-27T20:14:49.250Z,22.73
2023-01-27T20:19:52.570Z,18.38
2023-01-27T20:24:49.697Z,18.80
2023-01-27T20:29:47.076Z,22.70
2023-01-27T20:34:44.172Z,23.30
2023-01-27T20:39:42.536Z,20.13
2023-01-27T20:44:43.134Z,20.23
2023-01-27T20:49:47.875Z,24.90
2023-01-27T20:54:45.736Z,18.65
2023-01-27T20:59:44.919Z,22.73
2023-01-27T21:04:42.118Z,20.90
2023-01-27T21:09:38.989Z,21.20
2023-01-27T21:14:40.078Z,21.00
2023-01-27T21:19:40.738Z,24.52
2023-01-27T21:24:37.602Z,21.65
2023-01-27T21:29:35.385Z,20.27
2023-01-27T21:34:33.748Z,22.42
2023-01-27T21:39:30.806Z,24.88
2023-01-27T21:44:47.054Z,24.88
2023-01-27T21:50:02.514Z,22.00
2023-01-27T21:55:00.604Z,19.83
2023-01-27T21:59:57.549Z,25.13
2023-01-27T22:04:55.604Z,22.88
2023-01-27T22:09:52.611Z,23.25
2023-01-27T22:14:49.760Z,24.70
2023-01-27T22:19:46.747Z,22.88
2023-01-27T22:24:47.214Z,27.83
2023-01-27T22:29:44.288Z,22.40
2023-01-27T22:34:42.987Z,26.73
2023-01-27T22:39:41.609Z,19.58
2023-01-27T22:44:39.565Z,26.73
2023-01-27T22:49:36.489Z,22.60
2023-01-27T22:54:33.486Z,20.65
2023-01-27T22:59:30.451Z,20.10
2023-01-27T23:04:28.182Z,22.38
2023-01-27T23:09:27.241Z,23.00
2023-01-27T23:14:24.269Z,22.65
2023-01-27T23:19:21.389Z,21.45
2023-01-27T23:24:19.178Z,24.23
2023-01-27T23:29:24.672Z,1.08
2023-01-27T23:34:24.151Z,2.10
2023-01-27T23:39:21.935Z,0.77
2023-01-27T23:44:18.942Z,2.90
2023-01-27T23:49:15.956Z,1.90
2023-01-27T23:54:13.803Z,3.08
2023-01-27T23:59:12.577Z,1.92
